Onweer radar Meer informatie blitzortung!


Regen radar Meer informatie rain snow radar


Andere websites:

Template documentation
and downloads

And another site

Weather-Template Info-Forum

Webcam-Havenmond

Webcam-Havenkantoor

Webcam-Werkhaven

Webcam-Westhaven



Het weer levert geen direct gevaar op.    Er zijn geen waarschuwingen afgegeven.

METAR rapporten vliegvelden

   
EBAW - Antwerp
Gewijzigd: 24-04-2019 20:20
Light Showers, Regen, Gedeeltelijk bewolkt  
Light Showers, Regen, Gedeeltelijk bewolkt  
   Wind: ZZO 16.7 km/h
Wind: ZZO 16.7 km/h
Temperatuur: 13°C
Dauwpunt: 11°C
Vochtigheid: 88%
Barometer: 1001 hPa
Bewolking: Gedeeltelijk bewolkt
Zicht: 8 km
Bewolking: Licht bewolkt 2800 ft,
Gedeeltelijk bewolkt 4100 ft
EBAW 241820Z 16009KT 8000 -SHRA FEW028 SCT041 13/11 Q1001 TEMPO 4500 SHRA
EBLG - Li├Ęge
Gewijzigd: 24-04-2019 20:20
Light Showers, Regen, Licht bewolkt  
Light Showers, Regen, Licht bewolkt  
   Wind: ZO 14.8 km/h
Wind: ZO 14.8 km/h
Temperatuur: 11°C
Dauwpunt: 9°C
Vochtigheid: 88%
Barometer: 1003 hPa
Bewolking: Licht bewolkt
Zicht: meer dan 10 km
Bewolking: Licht bewolkt 3500 ft
EBLG 241820Z 14008KT 9999 -SHRA FEW035 11/09 Q1003 TEMPO 18025G35KT 4000 SHRA
EBCV - Mons/Bergen
Gewijzigd: 24-04-2019 20:25
Grotendeels bewolkt  
Grotendeels bewolkt  
   Wind: ZZW 11.1 km/h
Wind: ZZW 11.1 km/h
Temperatuur: 14°C
Dauwpunt: 10°C
Vochtigheid: 77%
Barometer: 1001 hPa
Bewolking: Grotendeels bewolkt
Zicht: meer dan 10 km
Bewolking: Grotendeels bewolkt 2400 ft,
Grotendeels bewolkt 12000 ft
EBCV 241825Z AUTO 20006KT 9999 BKN024/// BKN120/// 14/10 Q1001 WHT
EHBK - Maastricht
Gewijzigd: 24-04-2019 20:25
Regen, Grotendeels bewolkt  
Regen, Grotendeels bewolkt  
   Wind: Zuiden 29.6 km/h
Wind: Zuiden 29.6 km/h
Temperatuur: 11°C
Dauwpunt: 9°C
Vochtigheid: 88%
Barometer: 1003 hPa
Bewolking: Grotendeels bewolkt
Zicht: 8 km
Bewolking: Grotendeels bewolkt 1500 ft
EHBK 241825Z AUTO 19016KT 8000 RA BKN015CB 11/09 Q1003 TEMPO 19020G30KT 7000 RA SHRA SCT040CB
ELLX - Luxemburg
Gewijzigd: 24-04-2019 20:20
Regen, Grotendeels bewolkt  
Regen, Grotendeels bewolkt  
   Wind: ZZO 14.8 km/h
Wind: ZZO 14.8 km/h
Temperatuur: 9°C
Voelt als: 7°C
Dauwpunt: 7°C
Vochtigheid: 87%
Barometer: 1005 hPa
Bewolking: Grotendeels bewolkt
Zicht: meer dan 10 km
Bewolking: Licht bewolkt 1000 ft,
Grotendeels bewolkt 3800 ft
ELLX 241820Z 16008KT 130V190 9999 RA FEW010 BKN038 09/07 Q1005 NOSIG
EBOS - Oostende
Gewijzigd: 24-04-2019 20:20
Licht bewolkt  
Licht bewolkt  
   Wind: Zuiden 7.4 km/h
Wind: Zuiden 7.4 km/h
Temperatuur: 13°C
Dauwpunt: 9°C
Vochtigheid: 77%
Barometer: 999 hPa
Bewolking: Licht bewolkt
Zicht: meer dan 10 km
Bewolking: Licht bewolkt 3300 ft
EBOS 241820Z 18004KT 9999 FEW033 13/09 Q0999 NOSIG

Script ontwikkeld door  Saratoga-weather.org Aangepast voor de template door  Weerstation Leuven

U vindt ons ook hier:

Het Weer Aktueel

European Weather Network

WeatherCloud

Weather Underground

Benelux Weer Netwerk

AWEKAS

Apparatuur in gebruik:

Weerstation
Davis VP2

Weerprogramma
Meteohub

Weercomputer
My Computer

Webleverancier
My provider

Davis VP2

Meteohub

My Computer

My provider